Itajai, Brazil
Current Conditions -  °F | °C
As of 2:00 PM on Thursday 29 Jan 2015 (Local Time) from SBNF Reporting Station
Broken Clouds Broken Clouds  
Wind Chill: 95°   Ceiling: 5500
Heat Index: 105°   Visibility: 6mi
Dew Point: 73°   Wind: 14mph
Humidity: 49%   Direction: 260°W
Pressure: 29.74"   Gusts: NA
Location:  26.9°S, 48.68°W
Report Text: SBNF 291600Z 26012KT 9999 SCT037 BKN055 35/23 Q1007
Loading
Personal Weather Stations






























Interactive Weather Map New forecast layout! Learn more

10-Day Weather Forecast

Advertisements
Track Severe Weather on mobile